Accueil
METAR-TAF:

METAR-TAF

Aéroports :

Aéroport international de Bergame-Orio al Serio (Le Caravage)

Bergame, Italie

latitude: 45-40N, longitude: 009-42E, altitude: 238 m

Observation

Le bulletin a été fait il y a 10 minutes, à 06:50 UTC
Vent 4 kt de nord
Température -1°C
Humidité 86%
Pression 1029 hPa
Visibilité: 9000 m

METAR: LIME 240650Z 01004KT 9000 NSC M01/M03 Q1029 NOSIG

Heure: 08:00 (07:00 UTC)

Prévision

Le bulletin a été fait il y a 2 heures et 0 minutes, à 05:00 UTC
Prévision valable du 24 à 06 UTC au 25 à 06 UTC
Vent 5 kt de direction variable
Visibilité: 5000 m
brume
Evoluant progressivement
du 24 à 19 UTC au 24 à 21 UTC
Visibilité: 0500 m
brouillard givrant

TAF: LIME 240500Z 2406/2506 VRB05KT 5000 BR NSC BECMG 2419/2421 0500 FZFG

Observations et prévisions météorologiques de plus de 4000 aéroports (messages METAR et TAF).

Les stations disponibles sont représentées par des disques jaunes et rouges sur la carte.

Passer la souris dessus pour voir le nom de la station.

Cliquer dessus pour voir les observations et prévisions météorologiques.

Pour changer de carte: cliquez sur les boutons verts avec une croix noire pour zoomer, sur le bouton vert avec un tiret pour effectuer un zoom arrière, ou sur les flèches vertes pour les cartes adjacentes.


METAR-TAF: